This is the latest recevied weather packets stored in our database for station/object HS1AXC-1. If no packets are shown the sender has not sent any weather packets the latest 10 day(s).
| Time | Temp. | Humidity | Pressure | Rain* | Wind** | Luminosity | Snow |
|---|---|---|---|---|---|---|---|
| 1777602292 | 34.44° C | 71% | 1011 hPa | - | - | 2 W/m² | - |
| 1777601670 | 34.44° C | 71% | 1011 hPa | - | - | 1 W/m² | - |
| 1777601048 | 33.89° C | 74% | 1011 hPa | - | - | 1 W/m² | - |
| 1777600426 | 33.89° C | 74% | 1011 hPa | - | - | 1 W/m² | - |
| 1777599804 | 33.33° C | 76% | 1011 hPa | - | - | 1 W/m² | - |
| 1777599182 | 31.67° C | 82% | 1011 hPa | - | - | 1 W/m² | - |
| 1777598560 | 32.78° C | 76% | 1011 hPa | - | - | 1 W/m² | - |
| 1777597938 | 32.78° C | 77% | 1011 hPa | - | - | 1 W/m² | - |
| 1777597316 | 32.78° C | 77% | 1011 hPa | - | - | 1 W/m² | - |
| 1777596694 | 32.78° C | 76% | 1011 hPa | - | - | 1 W/m² | - |
| 1777596072 | 32.22° C | 78% | 1011 hPa | - | - | 1 W/m² | - |
| 1777595449 | 31.67° C | 80% | 1011 hPa | - | - | 1 W/m² | - |
| 1777594827 | 32.78° C | 77% | 1011 hPa | - | - | 1 W/m² | - |
| 1777594205 | 32.22° C | 79% | 1010 hPa | - | - | 0 W/m² | - |
| 1777593583 | 31.67° C | 81% | 1010 hPa | - | - | 0 W/m² | - |
| 1777592961 | 30° C | 86% | 1010 hPa | - | - | 0 W/m² | - |
| 1777592339 | 30.56° C | 85% | 1010 hPa | - | - | 0 W/m² | - |
| 1777591717 | 30.56° C | 82% | 1010 hPa | - | - | 0 W/m² | - |
| 1777591315 | 31.11° C | 82% | 1010 hPa | - | - | 0 W/m² | - |
| 1777590693 | 30.56° C | 82% | 1010 hPa | - | - | 0 W/m² | - |
| 1777590071 | 31.11° C | 79% | 1009 hPa | - | - | 0 W/m² | - |
| 1777589449 | 30.56° C | 82% | 1009 hPa | - | - | 0 W/m² | - |
| 1777588827 | 30.56° C | 80% | 1010 hPa | - | - | 0 W/m² | - |
| 1777587945 | 31.11° C | 78% | 1009 hPa | - | - | 0 W/m² | - |
| 1777587323 | 31.11° C | 77% | 1009 hPa | - | - | 0 W/m² | - |
* Rain since midnight (hover to see other rain measurements)
** Current wind speed in m/s (hover to see current wind gust speed)